createdAt,value
2016-04-26T00:00:08.060Z,13.94
2016-04-26T00:01:08.312Z,13.75
2016-04-26T00:02:07.925Z,14.04
2016-04-26T00:03:08.067Z,13.75
2016-04-26T00:04:08.086Z,13.85
2016-04-26T00:05:08.105Z,13.85
2016-04-26T00:06:08.096Z,13.85
2016-04-26T00:07:08.098Z,13.85
2016-04-26T00:08:08.101Z,14.14
2016-04-26T00:09:08.103Z,13.75
2016-04-26T00:10:07.965Z,13.85
2016-04-26T00:11:08.124Z,13.94
2016-04-26T00:12:08.126Z,13.85
2016-04-26T00:13:08.129Z,14.04
2016-04-26T00:14:08.132Z,13.94
2016-04-26T00:15:08.151Z,13.85
2016-04-26T00:16:08.356Z,13.94
2016-04-26T00:17:08.156Z,13.94
2016-04-26T00:18:08.159Z,13.85
2016-04-26T00:19:08.162Z,13.75
2016-04-26T00:20:08.180Z,13.94
2016-04-26T00:21:08.167Z,13.65
2016-04-26T00:22:08.185Z,13.94
2016-04-26T00:23:08.188Z,13.85
2016-04-26T00:24:08.206Z,13.85
2016-04-26T00:25:08.209Z,13.94
2016-04-26T00:26:08.211Z,14.23
2016-04-26T00:27:08.214Z,13.75
2016-04-26T00:28:08.217Z,14.14
2016-04-26T00:29:08.219Z,14.04
2016-04-26T00:30:08.238Z,14.04
2016-04-26T00:31:08.241Z,14.04
2016-04-26T00:32:08.791Z,13.75
2016-04-26T00:33:08.262Z,13.65
2016-04-26T00:34:08.249Z,13.75
2016-04-26T00:35:08.251Z,14.14
2016-04-26T00:36:08.270Z,13.85
2016-04-26T00:37:08.273Z,13.46
2016-04-26T00:38:08.276Z,13.65
2016-04-26T00:39:08.278Z,13.36
2016-04-26T00:40:08.281Z,13.56
2016-04-26T00:41:08.299Z,13.65
2016-04-26T00:42:08.301Z,13.56
2016-04-26T00:43:08.320Z,13.85
2016-04-26T00:44:08.306Z,13.75
2016-04-26T00:45:08.325Z,13.56
2016-04-26T00:46:09.140Z,13.66
2016-04-26T00:47:09.345Z,13.36
2016-04-26T00:48:08.334Z,13.56
2016-04-26T00:49:08.351Z,13.56
2016-04-26T00:50:08.353Z,13.75
2016-04-26T00:51:08.357Z,13.56
2016-04-26T00:52:08.359Z,13.65
2016-04-26T00:53:08.362Z,13.56
2016-04-26T00:54:08.365Z,13.75
2016-04-26T00:55:08.383Z,13.75
2016-04-26T00:56:08.386Z,13.75
2016-04-26T00:57:08.388Z,13.65
2016-04-26T00:58:08.391Z,13.66
2016-04-26T00:59:08.394Z,13.76
2016-04-26T01:00:08.413Z,13.65
2016-04-26T01:01:08.837Z,13.65
2016-04-26T01:02:08.324Z,13.65
2016-04-26T01:03:08.420Z,13.26
2016-04-26T01:04:08.455Z,13.76
2016-04-26T01:05:08.458Z,13.76
2016-04-26T01:06:08.444Z,13.75
2016-04-26T01:07:08.447Z,13.76
2016-04-26T01:08:08.449Z,13.46
2016-04-26T01:09:08.452Z,13.66
2016-04-26T01:10:08.470Z,13.75
2016-04-26T01:11:08.474Z,13.37
2016-04-26T01:12:08.476Z,13.66
2016-04-26T01:13:08.494Z,13.56
2016-04-26T01:14:08.482Z,13.27
2016-04-26T01:15:08.484Z,13.27
2016-04-26T01:16:08.503Z,13.56
2016-04-26T01:17:09.084Z,13.94
2016-04-26T01:18:08.508Z,13.36
2016-04-26T01:19:08.511Z,13.95
2016-04-26T01:20:08.529Z,13.85
2016-04-26T01:21:08.531Z,13.56
2016-04-26T01:22:08.533Z,13.75
2016-04-26T01:23:08.537Z,13.85
2016-04-26T01:24:08.555Z,13.56
2016-04-26T01:25:08.558Z,13.76
2016-04-26T01:26:08.561Z,13.94
2016-04-26T01:27:08.563Z,13.85
2016-04-26T01:28:08.581Z,13.76
2016-04-26T01:29:08.569Z,13.56
2016-04-26T01:30:08.572Z,13.66
2016-04-26T01:31:08.589Z,13.26
2016-04-26T01:32:08.952Z,13.75
2016-04-26T01:33:08.610Z,13.76
2016-04-26T01:34:08.613Z,13.56
2016-04-26T01:35:08.632Z,13.27
2016-04-26T01:36:08.635Z,13.76
2016-04-26T01:37:08.621Z,13.56
2016-04-26T01:38:08.624Z,13.27
2016-04-26T01:39:08.627Z,13.56
2016-04-26T01:40:08.646Z,13.75
2016-04-26T01:41:08.648Z,13.46
2016-04-26T01:42:08.650Z,13.37
2016-04-26T01:43:08.654Z,13.07
2016-04-26T01:44:08.671Z,13.17
2016-04-26T01:45:08.674Z,13.26
2016-04-26T01:46:08.676Z,13.17
2016-04-26T01:47:09.383Z,13.75
2016-04-26T01:48:08.682Z,13.18
2016-04-26T01:49:08.700Z,13.18
2016-04-26T01:50:08.703Z,13.27
2016-04-26T01:51:08.706Z,13.26
2016-04-26T01:52:08.708Z,13.37
2016-04-26T01:53:08.728Z,13.26
2016-04-26T01:54:08.714Z,13.27
2016-04-26T01:55:08.732Z,13.46
2016-04-26T01:56:08.736Z,13.37
2016-04-26T01:57:08.738Z,13.37
2016-04-26T01:58:08.740Z,13.27
2016-04-26T01:59:08.759Z,13.08
2016-04-26T02:00:08.777Z,13.37
2016-04-26T02:01:08.764Z,13.17
2016-04-26T02:02:08.658Z,13.37
2016-04-26T02:03:08.785Z,13.26
2016-04-26T02:04:08.772Z,13.27
2016-04-26T02:05:08.791Z,13.37
2016-04-26T02:06:08.793Z,13.37
2016-04-26T02:07:08.797Z,13.17
2016-04-26T02:08:08.814Z,13.26
2016-04-26T02:09:08.816Z,13.46
2016-04-26T02:10:08.820Z,13.17
2016-04-26T02:11:08.822Z,13.08
2016-04-26T02:12:08.824Z,13.66
2016-04-26T02:13:08.827Z,13.56
2016-04-26T02:14:08.846Z,13.17
2016-04-26T02:15:08.848Z,13.27
2016-04-26T02:16:08.851Z,13.46
2016-04-26T02:17:08.854Z,13.26
2016-04-26T02:18:08.857Z,13.18
2016-04-26T02:19:08.875Z,13.37
2016-04-26T02:20:08.878Z,13.27
2016-04-26T02:21:08.896Z,13.46
2016-04-26T02:22:08.898Z,13.18
2016-04-26T02:23:08.908Z,13.37
2016-04-26T02:24:08.896Z,13.18
2016-04-26T02:25:08.914Z,13.27
2016-04-26T02:26:08.916Z,13.37
2016-04-26T02:27:08.919Z,13.18
2016-04-26T02:28:08.922Z,13.08
2016-04-26T02:29:08.924Z,13.26
2016-04-26T02:30:08.943Z,13.46
2016-04-26T02:31:08.945Z,13.46
2016-04-26T02:32:08.793Z,13.08
2016-04-26T02:33:08.951Z,13.36
2016-04-26T02:34:08.953Z,13.27
2016-04-26T02:35:08.971Z,13.27
2016-04-26T02:36:08.959Z,13.27
2016-04-26T02:37:08.977Z,13.17
2016-04-26T02:38:08.979Z,13.18
2016-04-26T02:39:08.983Z,13.18
2016-04-26T02:40:09.001Z,13.26
2016-04-26T02:41:09.004Z,13.27
2016-04-26T02:42:09.006Z,13.18
2016-04-26T02:43:09.008Z,13.08
2016-04-26T02:44:09.028Z,13.37
2016-04-26T02:45:09.078Z,13.46
2016-04-26T02:46:09.033Z,13.17
2016-04-26T02:47:09.660Z,13.46
2016-04-26T02:48:09.054Z,13.27
2016-04-26T02:49:09.056Z,13.37
2016-04-26T02:50:09.058Z,13.46
2016-04-26T02:51:09.077Z,13.36
2016-04-26T02:52:09.065Z,13.37
2016-04-26T02:53:09.130Z,13.46
2016-04-26T02:54:09.085Z,13.36
2016-04-26T02:55:09.089Z,13.17
2016-04-26T02:56:09.090Z,13.37
2016-04-26T02:57:09.156Z,13.17
2016-04-26T02:58:09.096Z,13.17
2016-04-26T02:59:09.115Z,13.36
2016-04-26T03:00:09.118Z,13.18
2016-04-26T03:01:09.121Z,13.26
2016-04-26T03:02:09.060Z,13.17
2016-04-26T03:03:09.140Z,13.26
2016-04-26T03:04:09.144Z,13.36
2016-04-26T03:05:09.146Z,12.98
2016-04-26T03:06:09.149Z,13.26
2016-04-26T03:07:09.151Z,13.08
2016-04-26T03:08:09.170Z,13.07
2016-04-26T03:09:09.173Z,13.08
2016-04-26T03:10:09.019Z,13.18
2016-04-26T03:11:09.178Z,13.46
2016-04-26T03:12:09.181Z,13.07
2016-04-26T03:13:09.184Z,13.27
2016-04-26T03:14:09.201Z,13.27
2016-04-26T03:15:09.204Z,13.27
2016-04-26T03:16:09.222Z,12.79
2016-04-26T03:17:09.086Z,13.07
2016-04-26T03:18:09.229Z,13.08
2016-04-26T03:19:09.216Z,13.18
2016-04-26T03:20:09.234Z,13.08
2016-04-26T03:21:09.237Z,12.98
2016-04-26T03:22:09.240Z,12.49
2016-04-26T03:23:09.242Z,12.59
2016-04-26T03:24:09.261Z,12.88
2016-04-26T03:25:09.264Z,12.49
2016-04-26T03:26:09.267Z,12.68
2016-04-26T03:27:09.269Z,12.98
2016-04-26T03:28:09.272Z,12.49
2016-04-26T03:29:09.290Z,12.4
2016-04-26T03:30:09.292Z,12.49
2016-04-26T03:31:09.295Z,12.59
2016-04-26T03:32:09.158Z,12.69
2016-04-26T03:33:09.300Z,13.08
2016-04-26T03:34:09.319Z,12.69
2016-04-26T03:35:09.322Z,12.88
2016-04-26T03:36:09.324Z,12.59
2016-04-26T03:37:09.327Z,12.59
2016-04-26T03:38:09.346Z,12.59
2016-04-26T03:39:09.349Z,12.59
2016-04-26T03:40:09.351Z,12.79
2016-04-26T03:41:09.354Z,12.79
2016-04-26T03:42:09.372Z,12.78
2016-04-26T03:43:09.374Z,12.79
2016-04-26T03:44:09.377Z,12.79
2016-04-26T03:45:09.379Z,12.88
2016-04-26T03:46:09.383Z,12.69
2016-04-26T03:47:09.245Z,12.69
2016-04-26T03:48:09.403Z,12.88
2016-04-26T03:49:09.407Z,12.69
2016-04-26T03:50:09.409Z,12.49
2016-04-26T03:51:09.412Z,12.49
2016-04-26T03:52:09.415Z,12.79
2016-04-26T03:53:09.448Z,12.79
2016-04-26T03:54:09.435Z,12.79
2016-04-26T03:55:09.437Z,12.59
2016-04-26T03:56:09.440Z,12.88
2016-04-26T03:57:09.443Z,12.79
2016-04-26T03:58:09.461Z,12.78
2016-04-26T03:59:09.465Z,12.88
2016-04-26T04:00:09.467Z,12.69
2016-04-26T04:01:09.469Z,12.69
2016-04-26T04:02:09.504Z,12.98
2016-04-26T04:03:09.491Z,12.88
2016-04-26T04:04:09.493Z,12.69
2016-04-26T04:05:09.497Z,12.69
2016-04-26T04:06:09.499Z,12.3
2016-04-26T04:07:09.502Z,12.59
2016-04-26T04:08:09.520Z,12.49
2016-04-26T04:09:09.522Z,12.59
2016-04-26T04:10:09.519Z,12.49
2016-04-26T04:11:09.538Z,12.88
2016-04-26T04:12:09.540Z,12.79
2016-04-26T04:13:09.543Z,12.4
2016-04-26T04:14:09.546Z,12.3
2016-04-26T04:15:09.548Z,12.69
2016-04-26T04:16:09.567Z,12.69
2016-04-26T04:17:10.085Z,12.11
2016-04-26T04:18:09.572Z,12.21
2016-04-26T04:19:09.575Z,12.21
2016-04-26T04:20:09.578Z,12.21
2016-04-26T04:21:09.595Z,12.4
2016-04-26T04:22:09.598Z,12.4
2016-04-26T04:23:09.601Z,12.21
2016-04-26T04:24:09.620Z,12.21
2016-04-26T04:25:09.622Z,12.49
2016-04-26T04:26:09.625Z,12.21
2016-04-26T04:27:09.628Z,12.59
2016-04-26T04:28:09.630Z,12.11
2016-04-26T04:29:09.633Z,12.21
2016-04-26T04:30:09.635Z,12.3
2016-04-26T04:31:09.655Z,12.68
2016-04-26T04:32:09.923Z,12.11
2016-04-26T04:33:09.503Z,12.59
2016-04-26T04:34:09.678Z,12.1
2016-04-26T04:35:09.508Z,12.21
2016-04-26T04:36:09.683Z,12.11
2016-04-26T04:37:09.685Z,12.3
2016-04-26T04:38:09.688Z,12.4
2016-04-26T04:39:09.691Z,12.3
2016-04-26T04:40:09.694Z,12.3
2016-04-26T04:41:09.727Z,12.3
2016-04-26T04:42:09.715Z,12.11
2016-04-26T04:43:09.718Z,12.2
2016-04-26T04:44:09.720Z,12.21
2016-04-26T04:45:09.738Z,12.4
2016-04-26T04:46:09.741Z,12.2
2016-04-26T04:47:09.587Z,12.1
2016-04-26T04:48:09.746Z,12.3
2016-04-26T04:49:09.593Z,12.21
2016-04-26T04:50:09.751Z,12.3
2016-04-26T04:51:09.770Z,12.4
2016-04-26T04:52:09.773Z,12.3
2016-04-26T04:53:09.775Z,12.49
2016-04-26T04:54:09.778Z,12.49
2016-04-26T04:55:09.781Z,12.49
2016-04-26T04:56:09.783Z,12.4
2016-04-26T04:57:09.802Z,12.49
2016-04-26T04:58:09.805Z,12.2
2016-04-26T04:59:09.808Z,12.2
2016-04-26T05:00:09.825Z,12.78
2016-04-26T05:01:09.813Z,12.3
2016-04-26T05:02:11.191Z,12.3
2016-04-26T05:03:09.833Z,12.3
2016-04-26T05:04:09.852Z,12.3
2016-04-26T05:05:09.855Z,12.3
2016-04-26T05:06:09.857Z,12.1
2016-04-26T05:07:09.861Z,12.3
2016-04-26T05:08:09.862Z,12.4
2016-04-26T05:09:09.866Z,12.4
2016-04-26T05:10:09.885Z,12.59
2016-04-26T05:11:09.887Z,12.49
2016-04-26T05:12:09.890Z,12.59
2016-04-26T05:13:09.892Z,12.3
2016-04-26T05:14:09.910Z,12.2
2016-04-26T05:15:09.913Z,12.4
2016-04-26T05:16:09.931Z,12.21
2016-04-26T05:17:10.090Z,12.2
2016-04-26T05:18:09.920Z,12.3
2016-04-26T05:19:09.924Z,12.59
2016-04-26T05:20:09.943Z,12.3
2016-04-26T05:21:09.945Z,12.4
2016-04-26T05:22:09.948Z,12.4
2016-04-26T05:23:09.965Z,12.4
2016-04-26T05:24:09.968Z,12.4
2016-04-26T05:25:09.971Z,12.49
2016-04-26T05:26:09.989Z,12.49
2016-04-26T05:27:09.976Z,12.4
2016-04-26T05:28:09.995Z,12.3
2016-04-26T05:29:09.998Z,12.3
2016-04-26T05:30:10.000Z,12.59
2016-04-26T05:31:10.378Z,12.3
2016-04-26T05:32:09.865Z,12.49
2016-04-26T05:33:09.867Z,12.3
2016-04-26T05:34:10.027Z,12.21
2016-04-26T05:35:10.045Z,12.49
2016-04-26T05:36:10.047Z,12.4
2016-04-26T05:37:10.050Z,12.49
2016-04-26T05:38:10.052Z,12.01
2016-04-26T05:39:10.071Z,12.59
2016-04-26T05:40:10.074Z,12.4
2016-04-26T05:41:10.076Z,12.59
2016-04-26T05:42:10.095Z,12.49
2016-04-26T05:43:10.098Z,12.3
2016-04-26T05:44:10.101Z,12.21
2016-04-26T05:45:10.103Z,12.49
2016-04-26T05:46:10.121Z,12.49
2016-04-26T05:47:10.154Z,12.4
2016-04-26T05:48:10.204Z,12.4
2016-04-26T05:49:10.176Z,12.3
2016-04-26T05:50:10.398Z,12.4
2016-04-26T05:51:10.166Z,12.21
2016-04-26T05:52:10.168Z,12.3
2016-04-26T05:53:10.171Z,12.21
2016-04-26T05:54:10.190Z,12.3
2016-04-26T05:55:10.051Z,12.3
2016-04-26T05:56:10.195Z,12.69
2016-04-26T05:57:10.218Z,12.49
2016-04-26T05:58:10.209Z,12.4
2016-04-26T05:59:10.227Z,12.49
2016-04-26T06:00:10.215Z,12.3
2016-04-26T06:01:11.904Z,12.59
2016-04-26T06:02:12.480Z,12.3
2016-04-26T06:03:10.263Z,12.59
2016-04-26T06:04:10.250Z,12.4
2016-04-26T06:05:10.270Z,12.49
2016-04-26T06:06:10.256Z,12.2
2016-04-26T06:07:10.275Z,12.1
2016-04-26T06:08:10.277Z,12.49
2016-04-26T06:09:10.280Z,12.4
2016-04-26T06:10:10.298Z,12.4
2016-04-26T06:11:10.301Z,12.4
2016-04-26T06:12:10.304Z,12.21
2016-04-26T06:13:10.337Z,12.4
2016-04-26T06:14:10.324Z,12.59
2016-04-26T06:15:10.327Z,12.59
2016-04-26T06:16:10.330Z,12.3
2016-04-26T06:17:10.349Z,12.4
2016-04-26T06:18:10.773Z,12.01
2016-04-26T06:19:10.354Z,12.21
2016-04-26T06:20:10.434Z,12.21
2016-04-26T06:21:10.374Z,12.4
2016-04-26T06:22:10.380Z,12.3
2016-04-26T06:23:10.383Z,12.31
2016-04-26T06:24:10.402Z,12.49
2016-04-26T06:25:10.404Z,12.49
2016-04-26T06:26:10.407Z,12.59
2016-04-26T06:27:10.425Z,12.49
2016-04-26T06:28:10.428Z,12.21
2016-04-26T06:29:10.431Z,12.21
2016-04-26T06:30:10.434Z,12.3
2016-04-26T06:31:10.452Z,12.3
2016-04-26T06:32:10.454Z,12.4
2016-04-26T06:33:10.457Z,12.2
2016-04-26T06:34:10.475Z,12.88
2016-04-26T06:35:10.478Z,12.49
2016-04-26T06:36:10.496Z,12.68
2016-04-26T06:37:10.498Z,12.68
2016-04-26T06:38:10.517Z,12.88
2016-04-26T06:39:10.503Z,12.88
2016-04-26T06:40:10.507Z,12.59
2016-04-26T06:41:10.525Z,12.4
2016-04-26T06:42:10.527Z,12.68
2016-04-26T06:43:10.531Z,12.78
2016-04-26T06:44:10.533Z,12.68
2016-04-26T06:45:10.536Z,12.68
2016-04-26T06:46:10.555Z,12.59
2016-04-26T06:47:10.916Z,12.59
2016-04-26T06:48:10.825Z,12.59
2016-04-26T06:49:10.562Z,12.59
2016-04-26T06:50:10.580Z,12.59
2016-04-26T06:51:10.583Z,12.59
2016-04-26T06:52:10.585Z,12.2
2016-04-26T06:53:10.588Z,12.49
2016-04-26T06:54:10.607Z,12.68
2016-04-26T06:55:10.610Z,12.48
2016-04-26T06:56:10.784Z,13.26
2016-04-26T06:57:10.631Z,13.16
2016-04-26T06:58:10.633Z,12.87
2016-04-26T06:59:10.651Z,12.87
2016-04-26T07:00:10.639Z,12.48
2016-04-26T07:01:10.641Z,13.15
2016-04-26T07:02:10.519Z,13.54
2016-04-26T07:03:10.490Z,13.06
2016-04-26T07:04:10.665Z,13.26
2016-04-26T07:05:10.668Z,13.06
2016-04-26T07:06:10.671Z,13.45
2016-04-26T07:07:10.673Z,13.06
2016-04-26T07:08:10.692Z,13.45
2016-04-26T07:09:10.695Z,13.25
2016-04-26T07:10:10.697Z,13.15
2016-04-26T07:11:10.700Z,13.15
2016-04-26T07:12:10.702Z,13.45
2016-04-26T07:13:10.720Z,13.25
2016-04-26T07:14:10.723Z,13.25
2016-04-26T07:15:10.726Z,13.35
2016-04-26T07:16:10.728Z,13.25
2016-04-26T07:17:10.731Z,13.64
2016-04-26T07:18:10.734Z,13.15
2016-04-26T07:19:10.753Z,13.15
2016-04-26T07:20:10.755Z,13.25
2016-04-26T07:21:10.758Z,13.25
2016-04-26T07:22:10.776Z,12.57
2016-04-26T07:23:10.768Z,11.52
2016-04-26T07:24:10.770Z,12.19
2016-04-26T07:25:10.789Z,12.48
2016-04-26T07:26:10.792Z,11.51
2016-04-26T07:27:10.779Z,11.03
2016-04-26T07:28:10.782Z,11.32
2016-04-26T07:29:10.784Z,11.71
2016-04-26T07:30:10.803Z,12.19
2016-04-26T07:31:10.789Z,11.89
2016-04-26T07:32:10.792Z,10.74
2016-04-26T07:33:10.670Z,10.45
2016-04-26T07:34:10.797Z,10.94
2016-04-26T07:35:10.801Z,11.03
2016-04-26T07:36:10.802Z,12.19
2016-04-26T07:37:10.789Z,10.53
2016-04-26T07:38:10.793Z,10.45
2016-04-26T07:39:10.795Z,10.26
2016-04-26T07:40:10.798Z,11.12
2016-04-26T07:41:10.800Z,11.12
2016-04-26T07:42:10.803Z,10.25
2016-04-26T07:43:10.791Z,10.16
2016-04-26T07:44:10.793Z,9.58
2016-04-26T07:45:10.796Z,9.89
2016-04-26T07:46:11.235Z,10.46
2016-04-26T07:47:10.786Z,10.94
2016-04-26T07:48:10.663Z,10.35
2016-04-26T07:49:10.807Z,9.58
2016-04-26T07:50:10.810Z,10.17
2016-04-26T07:51:10.796Z,10.65
2016-04-26T07:52:10.799Z,10.45
2016-04-26T07:53:10.802Z,9.58
2016-04-26T07:54:10.788Z,10.17
2016-04-26T07:55:10.807Z,10.36
2016-04-26T07:56:10.809Z,10.64
2016-04-26T07:57:10.813Z,10.35
2016-04-26T07:58:10.800Z,10.85
2016-04-26T07:59:10.818Z,10.85
2016-04-26T08:00:10.805Z,10.94
2016-04-26T08:01:10.823Z,10.65
2016-04-26T08:02:10.809Z,10.26
2016-04-26T08:03:10.813Z,10.08
2016-04-26T08:04:10.815Z,9.59
2016-04-26T08:05:10.818Z,9.59
2016-04-26T08:06:10.820Z,9.6
2016-04-26T08:07:10.823Z,9.6
2016-04-26T08:08:10.826Z,9.41
2016-04-26T08:09:10.829Z,9.6
2016-04-26T08:10:10.848Z,9.6
2016-04-26T08:11:10.834Z,9.5
2016-04-26T08:12:10.837Z,9.6
2016-04-26T08:13:10.840Z,9.6
2016-04-26T08:14:10.858Z,9.7
2016-04-26T08:15:10.861Z,9.41
2016-04-26T08:16:10.863Z,9.31
2016-04-26T08:17:10.866Z,9.51
2016-04-26T08:18:11.588Z,9.31
2016-04-26T08:19:10.888Z,9.51
2016-04-26T08:20:10.891Z,9.6
2016-04-26T08:21:10.893Z,9.51
2016-04-26T08:22:10.896Z,9.6
2016-04-26T08:23:10.914Z,9.61
2016-04-26T08:24:10.916Z,9.7
2016-04-26T08:25:10.919Z,9.22
2016-04-26T08:26:10.921Z,9.32
2016-04-26T08:27:10.940Z,9.61
2016-04-26T08:28:10.943Z,9.61
2016-04-26T08:29:10.952Z,9.7
2016-04-26T08:30:10.958Z,9.51
2016-04-26T08:31:11.002Z,9.61
2016-04-26T08:32:11.047Z,9.7
2016-04-26T08:33:11.497Z,9.9
2016-04-26T08:34:11.151Z,10
2016-04-26T08:35:11.210Z,9.9
2016-04-26T08:36:11.227Z,10.38
2016-04-26T08:37:11.245Z,9.8
2016-04-26T08:38:11.107Z,9.7
2016-04-26T08:39:11.281Z,9.9
2016-04-26T08:40:11.297Z,9.8
2016-04-26T08:41:11.322Z,10
2016-04-26T08:42:11.330Z,9.61
2016-04-26T08:43:11.337Z,10.19
2016-04-26T08:44:11.346Z,10
2016-04-26T08:45:11.369Z,9.8
2016-04-26T08:46:11.373Z,10.19
2016-04-26T08:47:11.377Z,9.7
2016-04-26T08:48:12.867Z,10.38
2016-04-26T08:49:11.403Z,10.38
2016-04-26T08:50:11.408Z,9.9
2016-04-26T08:51:11.427Z,10
2016-04-26T08:52:11.414Z,9.8
2016-04-26T08:53:11.434Z,9.8
2016-04-26T08:54:11.438Z,10
2016-04-26T08:55:11.441Z,10.1
2016-04-26T08:56:11.459Z,10
2016-04-26T08:57:11.462Z,10
2016-04-26T08:58:11.466Z,10
2016-04-26T08:59:11.469Z,10.29
2016-04-26T09:00:11.487Z,10
2016-04-26T09:01:11.490Z,9.9
2016-04-26T09:02:11.492Z,10.1
2016-04-26T09:03:11.511Z,10.19
2016-04-26T09:04:10.763Z,10.38
2016-04-26T09:05:11.531Z,10.58
2016-04-26T09:06:11.519Z,10.1
2016-04-26T09:07:11.537Z,10.38
2016-04-26T09:08:11.540Z,10.1
2016-04-26T09:09:11.542Z,10.49
2016-04-26T09:10:11.545Z,10.29
2016-04-26T09:11:11.564Z,10.48
2016-04-26T09:12:11.567Z,10.48
2016-04-26T09:13:11.569Z,10.48
2016-04-26T09:14:11.587Z,10.38
2016-04-26T09:15:11.589Z,10.97
2016-04-26T09:16:11.608Z,10.58
2016-04-26T09:17:11.611Z,10.48
2016-04-26T09:18:11.473Z,10.48
2016-04-26T09:19:11.616Z,10.48
2016-04-26T09:20:11.635Z,10.58
2016-04-26T09:21:11.638Z,10.87
2016-04-26T09:22:11.656Z,11.07
2016-04-26T09:23:11.643Z,11.07
2016-04-26T09:24:11.660Z,11.25
2016-04-26T09:25:11.664Z,10.87
2016-04-26T09:26:11.682Z,11.07
2016-04-26T09:27:11.669Z,11.07
2016-04-26T09:28:11.672Z,10.68
2016-04-26T09:29:11.690Z,10.97
2016-04-26T09:30:11.693Z,10.87
2016-04-26T09:31:11.695Z,10.87
2016-04-26T09:32:11.713Z,10.58
2016-04-26T09:33:12.060Z,10.58
2016-04-26T09:34:11.719Z,10.97
2016-04-26T09:35:11.737Z,10.39
2016-04-26T09:36:11.741Z,10.58
2016-04-26T09:37:11.743Z,10.39
2016-04-26T09:38:11.745Z,10.38
2016-04-26T09:39:11.764Z,10.49
2016-04-26T09:40:11.767Z,10.78
2016-04-26T09:41:11.770Z,10.49
2016-04-26T09:42:11.787Z,10.69
2016-04-26T09:43:11.790Z,10.39
2016-04-26T09:44:13.246Z,10.49
2016-04-26T09:45:11.827Z,10.59
2016-04-26T09:46:11.876Z,10.69
2016-04-26T09:47:11.816Z,10.49
2016-04-26T09:48:12.178Z,10.49
2016-04-26T09:49:12.025Z,10.49
2016-04-26T09:50:11.856Z,10.49
2016-04-26T09:51:11.859Z,10.49
2016-04-26T09:52:11.861Z,10.58
2016-04-26T09:53:11.864Z,10.58
2016-04-26T09:54:14.273Z,10.49
2016-04-26T09:55:11.886Z,10.97
2016-04-26T09:56:11.887Z,11.07
2016-04-26T09:57:11.890Z,10.88
2016-04-26T09:58:11.908Z,10.88
2016-04-26T09:59:11.911Z,10.78
2016-04-26T10:00:11.914Z,10.97
2016-04-26T10:01:11.932Z,11.36
2016-04-26T10:02:11.935Z,11.07
2016-04-26T10:03:12.766Z,11.07
2016-04-26T10:04:11.784Z,11.27
2016-04-26T10:05:11.959Z,11.36
2016-04-26T10:06:11.946Z,11.17
2016-04-26T10:07:11.965Z,11.27
2016-04-26T10:08:15.029Z,10.97
2016-04-26T10:09:11.985Z,10.78
2016-04-26T10:10:11.987Z,10.88
2016-04-26T10:11:12.007Z,10.97
2016-04-26T10:12:12.009Z,10.88
2016-04-26T10:13:12.012Z,10.59
2016-04-26T10:14:12.014Z,10.69
2016-04-26T10:15:12.033Z,10.98
2016-04-26T10:16:12.035Z,10.69
2016-04-26T10:17:12.039Z,10.49
2016-04-26T10:18:12.056Z,10.59
2016-04-26T10:19:12.044Z,10.59
2016-04-26T10:20:12.062Z,11.08
2016-04-26T10:21:12.064Z,10.98
2016-04-26T10:22:12.082Z,10.98
2016-04-26T10:23:12.086Z,11.36
2016-04-26T10:24:12.089Z,11.27
2016-04-26T10:25:12.090Z,11.27
2016-04-26T10:26:12.109Z,11.27
2016-04-26T10:27:12.112Z,10.88
2016-04-26T10:28:12.114Z,11.27
2016-04-26T10:29:12.133Z,10.98
2016-04-26T10:30:11.979Z,10.88
2016-04-26T10:31:12.139Z,10.88
2016-04-26T10:32:12.157Z,11.08
2016-04-26T10:33:14.222Z,10.98
2016-04-26T10:34:12.038Z,10.98
2016-04-26T10:35:15.587Z,10.78
2016-04-26T10:36:12.182Z,10.88
2016-04-26T10:37:12.202Z,11.27
2016-04-26T10:38:12.203Z,11.18
2016-04-26T10:39:12.207Z,11.08
2016-04-26T10:40:12.225Z,10.98
2016-04-26T10:41:12.228Z,11.07
2016-04-26T10:42:12.230Z,11.07
2016-04-26T10:43:12.233Z,11.17
2016-04-26T10:44:12.251Z,11.07
2016-04-26T10:45:12.254Z,11.17
2016-04-26T10:46:12.256Z,11.17
2016-04-26T10:47:12.259Z,11.36
2016-04-26T10:48:12.122Z,10.88
2016-04-26T10:49:13.467Z,11.17
2016-04-26T10:50:12.284Z,11.46
2016-04-26T10:51:12.286Z,11.94
2016-04-26T10:52:12.319Z,11.26
2016-04-26T10:53:12.291Z,11.65
2016-04-26T10:54:12.309Z,11.46
2016-04-26T10:55:12.327Z,11.07
2016-04-26T10:56:12.331Z,11.17
2016-04-26T10:57:12.333Z,11.17
2016-04-26T10:58:12.336Z,11.46
2016-04-26T10:59:12.354Z,11.17
2016-04-26T11:00:12.357Z,11.55
2016-04-26T11:01:12.360Z,11.27
2016-04-26T11:02:12.378Z,11.55
2016-04-26T11:03:12.381Z,11.55
2016-04-26T11:04:12.571Z,11.36
2016-04-26T11:05:12.385Z,11.65
2016-04-26T11:06:12.405Z,11.36
2016-04-26T11:07:12.423Z,11.46
2016-04-26T11:08:12.426Z,11.94
2016-04-26T11:09:12.429Z,11.65
2016-04-26T11:10:12.446Z,11.55
2016-04-26T11:11:12.434Z,11.75
2016-04-26T11:12:12.451Z,11.65
2016-04-26T11:13:12.455Z,11.46
2016-04-26T11:14:12.457Z,11.46
2016-04-26T11:15:12.476Z,11.94
2016-04-26T11:16:12.493Z,12.04
2016-04-26T11:17:12.481Z,12.04
2016-04-26T11:18:12.374Z,11.75
2016-04-26T11:19:14.642Z,11.65
2016-04-26T11:20:12.504Z,11.65
2016-04-26T11:21:12.507Z,11.27
2016-04-26T11:22:12.525Z,11.55
2016-04-26T11:23:12.528Z,11.46
2016-04-26T11:24:12.531Z,11.36
2016-04-26T11:25:12.534Z,11.36
2016-04-26T11:26:12.552Z,12.14
2016-04-26T11:27:12.555Z,11.55
2016-04-26T11:28:12.573Z,11.36
2016-04-26T11:29:12.576Z,11.85
2016-04-26T11:30:12.578Z,11.94
2016-04-26T11:31:12.581Z,11.85
2016-04-26T11:32:12.599Z,11.65
2016-04-26T11:33:12.461Z,11.85
2016-04-26T11:34:14.542Z,11.94
2016-04-26T11:35:12.624Z,11.65
2016-04-26T11:36:12.626Z,11.85
2016-04-26T11:37:12.628Z,11.94
2016-04-26T11:38:12.663Z,12.23
2016-04-26T11:39:12.555Z,12.24
2016-04-26T11:40:12.652Z,12.24
2016-04-26T11:41:12.655Z,11.85
2016-04-26T11:42:12.673Z,12.34
2016-04-26T11:43:12.675Z,12.34
2016-04-26T11:44:12.678Z,12.23
2016-04-26T11:45:12.541Z,12.43
2016-04-26T11:46:12.699Z,12.23
2016-04-26T11:47:12.702Z,12.23
2016-04-26T11:48:12.721Z,12.43
2016-04-26T11:49:13.473Z,12.43
2016-04-26T11:50:12.726Z,12.33
2016-04-26T11:51:12.744Z,12.33
2016-04-26T11:52:12.762Z,12.33
2016-04-26T11:53:12.750Z,12.33
2016-04-26T11:54:12.753Z,12.62
2016-04-26T11:55:12.771Z,12.43
2016-04-26T11:56:12.773Z,12.52
2016-04-26T11:57:12.775Z,12.23
2016-04-26T11:58:12.778Z,12.33
2016-04-26T11:59:12.797Z,12.62
2016-04-26T12:00:12.799Z,12.81
2016-04-26T12:01:12.818Z,12.71
2016-04-26T12:02:12.821Z,12.61
2016-04-26T12:03:12.667Z,12.99
2016-04-26T12:04:12.732Z,12.6
2016-04-26T12:05:12.829Z,12.71
2016-04-26T12:06:12.847Z,12.61
2016-04-26T12:07:12.850Z,12.61
2016-04-26T12:08:12.852Z,12.71
2016-04-26T12:09:12.871Z,12.13
2016-04-26T12:10:12.873Z,12.23
2016-04-26T12:11:12.877Z,12.32
2016-04-26T12:12:12.910Z,12.42
2016-04-26T12:13:12.896Z,12.13
2016-04-26T12:14:12.899Z,12.23
2016-04-26T12:15:12.902Z,12.52
2016-04-26T12:16:12.920Z,12.42
2016-04-26T12:17:12.924Z,12.23
2016-04-26T12:18:12.785Z,12.23
2016-04-26T12:19:13.679Z,12.42
2016-04-26T12:20:12.947Z,12.33
2016-04-26T12:21:12.965Z,12.62
2016-04-26T12:22:12.967Z,12.42
2016-04-26T12:23:12.970Z,12.42
2016-04-26T12:24:12.989Z,12.42
2016-04-26T12:25:12.976Z,12.42
2016-04-26T12:26:12.994Z,12.13
2016-04-26T12:27:12.997Z,12.43
2016-04-26T12:28:13.000Z,12.13
2016-04-26T12:29:13.003Z,12.43
2016-04-26T12:30:13.021Z,12.04
2016-04-26T12:31:13.039Z,12.23
2016-04-26T12:32:13.027Z,12.33
2016-04-26T12:33:13.060Z,12.13
2016-04-26T12:34:13.438Z,12.13
2016-04-26T12:35:13.049Z,12.23
2016-04-26T12:36:13.053Z,12.13
2016-04-26T12:37:13.071Z,12.04
2016-04-26T12:38:13.074Z,12.23
2016-04-26T12:39:13.092Z,12.04
2016-04-26T12:40:13.094Z,11.55
2016-04-26T12:41:13.097Z,12.43
2016-04-26T12:42:13.100Z,11.55
2016-04-26T12:43:13.103Z,11.74
2016-04-26T12:44:13.121Z,11.55
2016-04-26T12:45:13.123Z,12.14
2016-04-26T12:46:13.127Z,11.85
2016-04-26T12:47:13.146Z,11.85
2016-04-26T12:48:13.148Z,11.75
2016-04-26T12:49:13.150Z,12.33
2016-04-26T12:50:13.150Z,12.23
2016-04-26T12:51:13.265Z,12.13
2016-04-26T12:52:13.171Z,12.23
2016-04-26T12:53:13.174Z,11.75
2016-04-26T12:54:13.192Z,11.46
2016-04-26T12:55:13.195Z,11.66
2016-04-26T12:56:13.198Z,11.55
2016-04-26T12:57:13.216Z,11.56
2016-04-26T12:58:13.219Z,11.66